Time;durP1;ratioP1;P1;durP2;ratioP2;P2;SDS_P1;SDS_P2;PMS_P1;PMS_P2;Temp;Humidity;BMP_temperature;BMP_pressure;BME280_temperature;BME280_humidity;BME280_pressure;Samples;Min_cycle;Max_cycle;Signal;HPM_P1;HPM_P2
2023/10/04 00:00:59;;;;;;;8.38;3.10;;;15.90;77.80;;;;;;5037292;28;20032;-67
2023/10/04 00:03:27;;;;;;;8.15;3.42;;;15.90;77.90;;;;;;5037314;28;20095;-67
2023/10/04 00:05:54;;;;;;;9.85;3.92;;;15.90;77.90;;;;;;5020303;28;20052;-67
2023/10/04 00:08:20;;;;;;;8.48;2.92;;;15.90;77.90;;;;;;5036862;28;20083;-68
2023/10/04 00:10:46;;;;;;;11.93;3.58;;;15.90;77.90;;;;;;5037435;28;20030;-67
2023/10/04 00:13:14;;;;;;;8.55;3.25;;;15.90;78.00;;;;;;5035965;28;20029;-67
2023/10/04 00:15:40;;;;;;;10.85;3.60;;;15.90;78.00;;;;;;5035528;28;20432;-67
2023/10/04 00:18:06;;;;;;;10.13;3.35;;;15.80;77.90;;;;;;5028668;28;20121;-68
2023/10/04 00:20:33;;;;;;;8.75;3.40;;;15.90;78.00;;;;;;5052733;28;20489;-67
2023/10/04 00:23:06;;;;;;;8.70;2.97;;;15.90;78.00;;;;;;5033896;28;20461;-67
2023/10/04 00:25:33;;;;;;;11.10;3.28;;;15.90;77.90;;;;;;5035567;28;20038;-68
2023/10/04 00:27:59;;;;;;;13.00;3.78;;;15.90;77.90;;;;;;5035274;28;20377;-68
2023/10/04 00:30:30;;;;;;;6.90;2.35;;;15.90;78.00;;;;;;5051947;28;20025;-67
2023/10/04 00:32:57;;;;;;;10.03;3.07;;;15.90;78.00;;;;;;5035949;28;20029;-67
2023/10/04 00:35:25;;;;;;;8.82;3.40;;;15.90;78.10;;;;;;5037323;28;20362;-67
2023/10/04 00:38:00;;;;;;;7.50;2.83;;;15.80;78.10;;;;;;5035632;28;20080;-67
2023/10/04 00:40:31;;;;;;;9.15;2.85;;;15.90;78.10;;;;;;5053158;28;20045;-67
2023/10/04 00:43:01;;;;;;;7.65;3.08;;;15.90;78.10;;;;;;5025239;28;20127;-68
2023/10/04 00:45:33;;;;;;;7.13;2.85;;;15.90;78.10;;;;;;5051231;28;20482;-67
2023/10/04 00:48:02;;;;;;;9.27;2.95;;;15.90;78.20;;;;;;5036031;28;20029;-67
2023/10/04 00:50:32;;;;;;;8.77;3.00;;;15.80;78.20;;;;;;5036961;28;20542;-67
2023/10/04 00:53:11;;;;;;;13.10;3.03;;;15.80;78.30;;;;;;5034996;28;20032;-67
2023/10/04 00:55:44;;;;;;;7.80;2.78;;;15.80;78.30;;;;;;5052725;28;20025;-67
2023/10/04 00:58:12;;;;;;;10.32;3.38;;;15.80;78.40;;;;;;5035258;28;20068;-68
2023/10/04 01:00:38;;;;;;;8.63;2.72;;;15.80;78.40;;;;;;5036304;28;20033;-67
2023/10/04 01:03:09;;;;;;;8.65;3.17;;;15.80;78.40;;;;;;5032641;28;20033;-68
2023/10/04 01:05:39;;;;;;;8.73;2.83;;;15.80;78.40;;;;;;5034799;28;20052;-67
2023/10/04 01:08:06;;;;;;;11.60;3.47;;;15.80;78.40;;;;;;5034951;28;20510;-68
2023/10/04 01:10:37;;;;;;;10.02;2.88;;;15.80;78.40;;;;;;5018631;28;20118;-68
2023/10/04 01:13:05;;;;;;;9.52;3.10;;;15.80;78.40;;;;;;5033870;28;20064;-67
2023/10/04 01:15:39;;;;;;;11.77;3.53;;;15.80;78.40;;;;;;5036598;28;20166;-67
2023/10/04 01:18:09;;;;;;;9.10;3.15;;;15.80;78.40;;;;;;5035536;28;20474;-68
2023/10/04 01:20:37;;;;;;;10.50;3.42;;;15.80;78.40;;;;;;5034715;28;20064;-68
2023/10/04 01:23:05;;;;;;;8.70;3.20;;;15.80;78.40;;;;;;5034040;28;20175;-67
2023/10/04 01:25:36;;;;;;;10.60;3.17;;;15.80;78.50;;;;;;5049867;28;20049;-67
2023/10/04 01:28:12;;;;;;;6.38;2.70;;;15.80;78.60;;;;;;5045629;28;20034;-68
2023/10/04 01:30:43;;;;;;;9.20;2.95;;;15.80;78.50;;;;;;5051605;28;20446;-68
2023/10/04 01:33:15;;;;;;;8.73;3.05;;;15.80;78.60;;;;;;5049963;28;20037;-68
2023/10/04 01:35:58;;;;;;;8.18;2.90;;;15.80;78.50;;;;;;5035597;28;20063;-68
2023/10/04 01:38:25;;;;;;;9.80;2.75;;;15.80;78.60;;;;;;5045112;28;20026;-67
2023/10/04 01:40:52;;;;;;;10.02;3.65;;;15.80;78.50;;;;;;5035376;28;20029;-68
2023/10/04 01:43:19;;;;;;;9.20;3.20;;;15.80;78.60;;;;;;5032526;28;20029;-67
2023/10/04 01:45:57;;;;;;;9.55;3.05;;;15.80;78.60;;;;;;5034774;28;20116;-67
2023/10/04 01:48:23;;;;;;;9.40;2.95;;;15.80;78.60;;;;;;5034869;28;20037;-67
2023/10/04 01:50:52;;;;;;;9.38;3.88;;;15.80;78.50;;;;;;5051151;28;20450;-67
2023/10/04 01:53:25;;;;;;;7.03;2.90;;;15.80;78.60;;;;;;5048853;28;20040;-67
2023/10/04 01:55:52;;;;;;;8.77;2.95;;;15.80;78.50;;;;;;5046525;28;20032;-67
2023/10/04 01:58:21;;;;;;;12.13;3.13;;;15.80;78.60;;;;;;5050011;28;20037;-67
2023/10/04 02:00:47;;;;;;;9.60;2.95;;;15.70;78.60;;;;;;5034369;28;20037;-67
2023/10/04 02:03:14;;;;;;;6.93;2.45;;;15.70;78.60;;;;;;5048921;28;20108;-67
2023/10/04 02:05:40;;;;;;;9.95;3.15;;;15.70;78.60;;;;;;5017674;28;20045;-67
2023/10/04 02:08:08;;;;;;;12.93;3.10;;;15.70;78.60;;;;;;5035432;28;20108;-67
2023/10/04 02:10:34;;;;;;;7.55;2.72;;;15.70;78.60;;;;;;5032916;28;20033;-67
2023/10/04 02:13:00;;;;;;;8.07;3.20;;;15.70;78.60;;;;;;5033770;28;20456;-67
2023/10/04 02:15:26;;;;;;;10.32;3.22;;;15.70;78.70;;;;;;5032910;28;20037;-67
2023/10/04 02:17:53;;;;;;;9.15;3.13;;;15.70;78.70;;;;;;5033731;28;20425;-68
2023/10/04 02:20:31;;;;;;;10.75;3.08;;;15.70;78.70;;;;;;5034416;28;20117;-67
2023/10/04 02:22:57;;;;;;;7.82;2.95;;;15.70;78.70;;;;;;5040095;28;20029;-67
2023/10/04 02:25:24;;;;;;;10.02;2.88;;;15.70;78.70;;;;;;5034375;28;20046;-67
2023/10/04 02:27:52;;;;;;;7.60;2.83;;;15.80;78.70;;;;;;5034255;28;20041;-67
2023/10/04 02:30:23;;;;;;;11.45;3.53;;;15.70;78.60;;;;;;5048261;28;20029;-67
2023/10/04 02:32:52;;;;;;;8.23;2.93;;;15.70;78.80;;;;;;5045731;28;20408;-67
2023/10/04 02:35:33;;;;;;;7.25;2.67;;;15.70;78.70;;;;;;5033584;28;20481;-68
2023/10/04 02:38:00;;;;;;;11.20;3.20;;;15.70;78.70;;;;;;5017518;28;20033;-67
2023/10/04 02:40:32;;;;;;;11.23;3.00;;;15.70;78.70;;;;;;5048537;28;20437;-67
2023/10/04 02:42:59;;;;;;;9.88;2.92;;;15.80;78.80;;;;;;5034890;28;20024;-67
2023/10/04 02:45:26;;;;;;;11.38;3.20;;;15.70;78.80;;;;;;5040671;28;20029;-67
2023/10/04 02:47:53;;;;;;;10.68;3.22;;;15.70;78.80;;;;;;5039926;28;20062;-67
2023/10/04 02:50:22;;;;;;;7.28;2.75;;;15.70;78.90;;;;;;5041071;28;20024;-67
2023/10/04 02:52:50;;;;;;;9.48;3.17;;;15.70;78.90;;;;;;5040401;28;20029;-67
2023/10/04 02:55:20;;;;;;;10.38;3.55;;;15.70;79.00;;;;;;5030973;28;20410;-67
2023/10/04 02:57:50;;;;;;;11.20;2.95;;;15.70;79.00;;;;;;5049839;28;20028;-67
2023/10/04 03:00:19;;;;;;;10.77;3.10;;;15.70;79.00;;;;;;5032897;28;20450;-67
2023/10/04 03:02:52;;;;;;;9.00;3.03;;;15.70;79.00;;;;;;5043744;28;20111;-67
2023/10/04 03:05:20;;;;;;;8.20;3.13;;;15.70;79.00;;;;;;5044208;28;20029;-67
2023/10/04 03:07:50;;;;;;;9.18;3.10;;;15.70;79.00;;;;;;5049202;28;20026;-67
2023/10/04 03:10:24;;;;;;;9.93;3.72;;;15.70;79.10;;;;;;5032874;28;20018;-67
2023/10/04 03:13:01;;;;;;;9.82;3.30;;;15.70;79.10;;;;;;5044894;28;20091;-68
2023/10/04 03:15:29;;;;;;;10.18;3.20;;;15.70;79.10;;;;;;5026074;28;20415;-67
2023/10/04 03:17:59;;;;;;;8.98;3.10;;;15.70;79.10;;;;;;5012880;28;20414;-67
2023/10/04 03:20:29;;;;;;;11.23;3.28;;;15.70;79.10;;;;;;5026492;28;20116;-66
2023/10/04 03:23:00;;;;;;;8.30;3.03;;;15.70;79.20;;;;;;5052476;28;20079;-66
2023/10/04 03:25:27;;;;;;;11.15;3.38;;;15.70;79.20;;;;;;5035807;28;20035;-66
2023/10/04 03:27:55;;;;;;;7.72;2.85;;;15.60;79.10;;;;;;5054455;28;20064;-66
2023/10/04 03:30:22;;;;;;;7.60;3.03;;;15.60;79.20;;;;;;5055374;28;20025;-66
2023/10/04 03:32:52;;;;;;;6.70;2.80;;;15.60;79.20;;;;;;5033012;28;20036;-65
2023/10/04 03:35:21;;;;;;;9.77;3.08;;;15.60;79.20;;;;;;5032533;28;20018;-66
2023/10/04 03:37:58;;;;;;;11.32;3.08;;;15.60;79.20;;;;;;5047978;28;20120;-66
2023/10/04 03:40:38;;;;;;;8.27;3.25;;;15.60;79.20;;;;;;5032934;28;20083;-66
2023/10/04 03:43:08;;;;;;;11.05;2.97;;;15.60;79.20;;;;;;5033043;28;20117;-66
2023/10/04 03:45:41;;;;;;;7.38;3.03;;;15.50;79.20;;;;;;5048602;28;20040;-66
2023/10/04 03:48:15;;;;;;;9.30;3.20;;;15.50;79.20;;;;;;5048023;28;20398;-66
2023/10/04 03:50:50;;;;;;;9.48;3.42;;;15.50;79.20;;;;;;5048730;28;20021;-65
2023/10/04 03:53:20;;;;;;;9.80;3.00;;;15.50;79.20;;;;;;5050145;28;20460;-66
2023/10/04 03:55:47;;;;;;;9.75;2.67;;;15.50;79.20;;;;;;5036128;28;20108;-66
2023/10/04 03:58:15;;;;;;;8.40;2.75;;;15.50;79.20;;;;;;5048333;28;20041;-66
2023/10/04 04:00:42;;;;;;;9.25;3.22;;;15.50;79.30;;;;;;5052223;28;20121;-66
2023/10/04 04:03:10;;;;;;;11.27;3.20;;;15.40;79.20;;;;;;5047236;28;20033;-66
2023/10/04 04:05:44;;;;;;;9.10;3.33;;;15.40;79.20;;;;;;5046275;28;20073;-66
2023/10/04 04:08:13;;;;;;;9.20;3.03;;;15.40;79.20;;;;;;5023507;28;20079;-66
2023/10/04 04:10:40;;;;;;;8.40;3.25;;;15.40;79.20;;;;;;5033088;28;20462;-66
2023/10/04 04:13:06;;;;;;;11.13;3.30;;;15.40;79.20;;;;;;5047649;28;20517;-66
2023/10/04 04:15:35;;;;;;;10.13;2.90;;;15.40;79.30;;;;;;5034495;28;20060;-65
2023/10/04 04:18:09;;;;;;;6.30;2.33;;;15.40;79.30;;;;;;5018773;28;20033;-66
2023/10/04 04:20:36;;;;;;;10.88;3.03;;;15.30;79.30;;;;;;5044509;28;20034;-65
2023/10/04 04:23:04;;;;;;;7.25;3.45;;;15.30;79.40;;;;;;5031960;28;20404;-67
2023/10/04 04:25:30;;;;;;;7.03;2.95;;;15.30;79.30;;;;;;5033258;28;20402;-68
2023/10/04 04:27:58;;;;;;;10.85;3.03;;;15.30;79.30;;;;;;5051420;28;20119;-68
2023/10/04 04:30:31;;;;;;;9.10;2.83;;;15.30;79.30;;;;;;5025559;28;20418;-68
2023/10/04 04:32:58;;;;;;;9.40;3.40;;;15.30;79.30;;;;;;5054867;28;20021;-68
2023/10/04 04:37:57;;;;;;;9.35;3.10;;;15.30;79.30;;;;;;5036053;28;20427;-68
2023/10/04 04:40:30;;;;;;;9.00;3.15;;;15.30;79.40;;;;;;5013707;28;20025;-68
2023/10/04 04:43:02;;;;;;;9.88;2.70;;;15.30;79.50;;;;;;5045961;28;20021;-68
2023/10/04 04:45:29;;;;;;;9.45;3.47;;;15.30;79.50;;;;;;5032462;28;20025;-68
2023/10/04 04:47:55;;;;;;;9.73;3.15;;;15.30;79.40;;;;;;5047659;28;20052;-74
2023/10/04 04:50:24;;;;;;;8.90;2.80;;;15.30;79.40;;;;;;5038683;28;20021;-72
2023/10/04 04:52:52;;;;;;;8.43;2.92;;;15.30;79.40;;;;;;5044588;28;20014;-70
2023/10/04 04:55:18;;;;;;;8.63;2.92;;;15.30;79.40;;;;;;5021388;28;20020;-70
2023/10/04 04:57:44;;;;;;;7.07;2.67;;;15.30;79.40;;;;;;5038547;28;20030;-70
2023/10/04 05:00:30;;;;;;;8.90;2.88;;;15.20;79.30;;;;;;5034127;28;20036;-70
2023/10/04 05:02:59;;;;;;;8.00;3.28;;;15.20;79.30;;;;;;5039995;28;20025;-70
2023/10/04 05:05:25;;;;;;;10.82;3.70;;;15.20;79.30;;;;;;5038637;28;20030;-70
2023/10/04 05:07:50;;;;;;;9.25;3.22;;;15.20;79.30;;;;;;5046006;28;20034;-71
2023/10/04 05:10:18;;;;;;;8.10;2.70;;;15.20;79.30;;;;;;5035845;28;20029;-71
2023/10/04 05:12:47;;;;;;;7.82;2.97;;;15.10;79.30;;;;;;5029631;28;20097;-70
2023/10/04 05:15:24;;;;;;;8.70;2.78;;;15.10;79.30;;;;;;5033619;28;20092;-70
2023/10/04 05:17:50;;;;;;;11.75;3.47;;;15.10;79.30;;;;;;5040040;28;20033;-72
2023/10/04 05:20:21;;;;;;;9.52;3.55;;;15.10;79.30;;;;;;5040406;28;20540;-71
2023/10/04 05:22:52;;;;;;;11.40;3.28;;;15.00;79.30;;;;;;5051491;28;20191;-71
2023/10/04 05:25:20;;;;;;;9.48;2.97;;;15.10;79.30;;;;;;5041783;28;20076;-71
2023/10/04 05:27:49;;;;;;;9.90;3.08;;;15.10;79.40;;;;;;5038948;28;20121;-71
2023/10/04 05:30:16;;;;;;;13.88;4.03;;;15.00;79.30;;;;;;5035166;28;20033;-71
2023/10/04 05:32:43;;;;;;;10.93;3.47;;;15.00;79.30;;;;;;5036759;28;20367;-71
2023/10/04 05:35:18;;;;;;;12.07;3.33;;;15.00;79.30;;;;;;5036384;28;20036;-71
2023/10/04 05:37:44;;;;;;;9.50;3.38;;;15.00;79.30;;;;;;5033610;28;20053;-72
2023/10/04 05:40:17;;;;;;;8.88;3.22;;;15.00;79.30;;;;;;5027056;28;20048;-71
2023/10/04 05:42:49;;;;;;;11.25;3.55;;;15.00;79.30;;;;;;5049140;28;20112;-71
2023/10/04 05:45:16;;;;;;;10.65;3.45;;;15.00;79.30;;;;;;5043383;28;20047;-71
2023/10/04 05:47:43;;;;;;;8.98;3.08;;;15.00;79.30;;;;;;5040642;28;20025;-71
2023/10/04 05:50:17;;;;;;;10.48;3.10;;;15.00;79.30;;;;;;5034516;28;20041;-71
2023/10/04 05:52:43;;;;;;;9.88;3.90;;;15.00;79.30;;;;;;5030660;28;20091;-71
2023/10/04 05:55:10;;;;;;;9.18;3.08;;;15.00;79.40;;;;;;5032664;28;20434;-71
2023/10/04 05:57:36;;;;;;;10.50;3.55;;;15.00;79.30;;;;;;5048728;28;20470;-71
2023/10/04 06:00:51;;;;;;;11.35;3.47;;;14.90;79.30;;;;;;5030243;28;20025;-70
2023/10/04 06:02:54;;;;;;;9.82;3.95;;;15.00;79.40;;;;;;5033826;28;20045;-70
2023/10/04 06:05:22;;;;;;;12.15;3.65;;;14.90;79.30;;;;;;5030187;28;20029;-70
2023/10/04 06:07:51;;;;;;;10.45;3.33;;;15.00;79.40;;;;;;5033105;28;20037;-71
2023/10/04 06:10:18;;;;;;;12.68;3.75;;;14.90;79.30;;;;;;5030072;28;20040;-70
2023/10/04 06:12:46;;;;;;;14.75;3.83;;;14.90;79.30;;;;;;5030595;28;20431;-70
2023/10/04 06:15:16;;;;;;;10.45;3.58;;;15.00;79.30;;;;;;5027923;28;20029;-71
2023/10/04 06:17:45;;;;;;;11.57;3.75;;;15.00;79.30;;;;;;5030778;28;20037;-70
2023/10/04 06:20:23;;;;;;;9.50;3.50;;;15.10;79.20;;;;;;5028527;28;20040;-71
2023/10/04 06:22:54;;;;;;;8.85;3.75;;;15.10;79.10;;;;;;5032059;28;20068;-71
2023/10/04 06:25:24;;;;;;;12.38;3.67;;;15.10;79.00;;;;;;5031963;28;20095;-71
2023/10/04 06:27:55;;;;;;;11.10;4.20;;;15.20;79.10;;;;;;5051079;28;20021;-72
2023/10/04 06:30:23;;;;;;;9.02;3.85;;;15.20;79.00;;;;;;5043115;28;20055;-72
2023/10/04 06:32:50;;;;;;;9.50;3.70;;;15.20;79.00;;;;;;5034153;28;20037;-73
2023/10/04 06:35:17;;;;;;;12.23;3.92;;;15.20;79.00;;;;;;5034722;28;20052;-73
2023/10/04 06:37:43;;;;;;;10.10;3.88;;;15.20;78.90;;;;;;5031283;28;20156;-75
2023/10/04 06:40:27;;;;;;;14.05;4.57;;;15.20;78.90;;;;;;5027537;28;20112;-75
2023/10/04 06:42:55;;;;;;;10.60;3.67;;;15.30;79.00;;;;;;5043022;28;20051;-74
2023/10/04 06:45:26;;;;;;;9.93;3.75;;;15.30;78.90;;;;;;5034858;28;20103;-74
2023/10/04 06:47:54;;;;;;;10.10;3.97;;;15.30;78.90;;;;;;5033953;28;20348;-75
2023/10/04 06:50:22;;;;;;;14.65;4.32;;;15.30;78.80;;;;;;5034533;28;20458;-74
2023/10/04 06:52:51;;;;;;;8.50;3.15;;;15.30;78.80;;;;;;5033930;28;20033;-73
2023/10/04 06:55:20;;;;;;;11.45;3.63;;;15.40;78.70;;;;;;5041659;28;20037;-74
2023/10/04 06:57:47;;;;;;;8.43;3.58;;;15.50;78.60;;;;;;5043056;28;20426;-74
2023/10/04 07:00:18;;;;;;;13.50;4.13;;;15.50;78.60;;;;;;5041326;28;20021;-74
2023/10/04 07:02:54;;;;;;;;;;;15.50;78.50;;;;;;5051027;28;20026;-70
2023/10/04 07:05:20;;;;;;;12.10;3.83;;;15.50;78.50;;;;;;5027488;28;19995;-71
2023/10/04 07:07:47;;;;;;;9.60;3.60;;;15.50;78.60;;;;;;5046159;28;20446;-72
2023/10/04 07:10:15;;;;;;;9.43;3.53;;;15.60;78.60;;;;;;5056137;28;20044;-72
2023/10/04 07:12:44;;;;;;;10.13;4.45;;;15.60;78.50;;;;;;5027255;28;20025;-72
2023/10/04 07:15:11;;;;;;;11.00;4.07;;;15.70;78.50;;;;;;5040891;28;20026;-72
2023/10/04 07:17:39;;;;;;;11.73;3.97;;;15.70;78.50;;;;;;5048560;28;20075;-72
2023/10/04 07:20:14;;;;;;;8.48;3.90;;;15.70;78.40;;;;;;5036769;28;20029;-71
2023/10/04 07:22:58;;;;;;;11.65;4.07;;;15.70;78.30;;;;;;5048780;28;20124;-73
2023/10/04 07:25:28;;;;;;;11.05;4.15;;;15.80;78.30;;;;;;5013730;28;20045;-74
2023/10/04 07:27:55;;;;;;;11.68;4.28;;;15.80;78.20;;;;;;5025269;28;20366;-73
2023/10/04 07:30:22;;;;;;;11.98;4.55;;;15.90;78.20;;;;;;5031835;28;20462;-73
2023/10/04 07:32:48;;;;;;;13.00;4.35;;;15.90;78.10;;;;;;5033143;28;20033;-73
2023/10/04 07:35:18;;;;;;;12.90;4.20;;;15.90;78.00;;;;;;5032029;28;20025;-73
2023/10/04 07:37:46;;;;;;;11.95;4.10;;;16.00;78.00;;;;;;5031637;28;20067;-72
2023/10/04 07:40:14;;;;;;;18.42;5.07;;;16.10;77.90;;;;;;5032105;28;20121;-73
2023/10/04 07:42:41;;;;;;;10.63;4.10;;;16.10;77.80;;;;;;5030939;28;20040;-72
2023/10/04 07:45:08;;;;;;;10.98;4.03;;;16.20;77.70;;;;;;5026266;28;20358;-73
2023/10/04 07:47:44;;;;;;;10.48;3.65;;;16.30;77.70;;;;;;5034543;28;20064;-72
2023/10/04 07:50:13;;;;;;;13.30;4.32;;;16.30;77.40;;;;;;5033770;28;20014;-72
2023/10/04 07:52:40;;;;;;;12.18;3.88;;;16.50;77.60;;;;;;5033912;28;20104;-72
2023/10/04 07:55:28;;;;;;;11.50;4.18;;;16.50;77.10;;;;;;5029926;28;20053;-72
2023/10/04 07:57:58;;;;;;;9.65;3.58;;;16.60;76.80;;;;;;5033556;28;20354;-72
2023/10/04 08:00:24;;;;;;;15.33;3.83;;;16.70;76.60;;;;;;5032436;28;20029;-72
2023/10/04 08:02:51;;;;;;;9.93;3.83;;;16.80;76.40;;;;;;5044810;28;20430;-72
2023/10/04 08:05:19;;;;;;;13.23;3.88;;;16.90;76.20;;;;;;5036269;28;20029;-72
2023/10/04 08:07:53;;;;;;;9.93;3.90;;;16.90;76.00;;;;;;5037214;28;20112;-72
2023/10/04 08:10:25;;;;;;;14.00;4.13;;;17.00;75.90;;;;;;5052919;28;20057;-72
2023/10/04 08:12:54;;;;;;;;;;;17.10;75.80;;;;;;5038411;28;20392;-72
2023/10/04 08:15:22;;;;;;;12.65;4.03;;;17.20;75.70;;;;;;5018525;28;19914;-73
2023/10/04 08:17:48;;;;;;;11.45;3.58;;;17.20;75.50;;;;;;5036198;28;20021;-72
2023/10/04 08:20:15;;;;;;;9.77;3.63;;;17.30;75.30;;;;;;5044807;28;20095;-73
2023/10/04 08:22:41;;;;;;;10.65;3.63;;;17.40;75.20;;;;;;5034302;28;20041;-73
2023/10/04 08:25:09;;;;;;;14.55;4.47;;;17.50;75.00;;;;;;5030721;28;20111;-74
2023/10/04 08:27:35;;;;;;;13.25;4.30;;;17.60;74.90;;;;;;5032164;28;20037;-73
2023/10/04 08:30:08;;;;;;;11.82;3.90;;;17.70;74.70;;;;;;5024954;28;21745;-72
2023/10/04 08:32:34;;;;;;;10.48;4.10;;;17.80;74.40;;;;;;5045509;28;20033;-72
2023/10/04 08:35:02;;;;;;;11.70;3.78;;;17.90;74.30;;;;;;5032451;28;20033;-73
2023/10/04 08:37:28;;;;;;;12.73;3.70;;;17.90;74.10;;;;;;5047352;28;20120;-72
2023/10/04 08:39:54;;;;;;;11.13;4.13;;;17.90;74.00;;;;;;5032184;28;20465;-72
2023/10/04 08:42:20;;;;;;;10.55;3.70;;;17.90;74.10;;;;;;5014741;28;20042;-72
2023/10/04 08:44:46;;;;;;;10.25;3.83;;;17.90;74.10;;;;;;5038423;28;20057;-73
2023/10/04 08:47:12;;;;;;;13.57;4.10;;;18.00;74.00;;;;;;5040614;28;20130;-73
2023/10/04 08:49:55;;;;;;;11.15;4.25;;;18.10;73.90;;;;;;5045721;28;20029;-73
2023/10/04 08:52:45;;;;;;;12.65;3.80;;;18.20;73.80;;;;;;5033878;28;20476;-73
2023/10/04 08:55:16;;;;;;;12.70;3.70;;;18.30;73.80;;;;;;5053409;28;20496;-74
2023/10/04 08:57:43;;;;;;;11.80;3.58;;;18.40;73.70;;;;;;5052222;28;20471;-73
2023/10/04 09:00:13;;;;;;;11.13;4.30;;;18.50;73.50;;;;;;5067514;28;20043;-75
2023/10/04 09:02:45;;;;;;;11.40;4.28;;;18.70;73.30;;;;;;5057101;28;20366;-75
2023/10/04 09:05:14;;;;;;;12.48;4.15;;;18.70;72.90;;;;;;5056093;28;20434;-74
2023/10/04 09:07:42;;;;;;;12.05;3.90;;;18.70;72.70;;;;;;5033687;28;20026;-74
2023/10/04 09:10:15;;;;;;;11.18;3.90;;;18.70;72.70;;;;;;5029612;28;20036;-73
2023/10/04 09:12:45;;;;;;;9.82;3.60;;;18.80;72.60;;;;;;5031640;28;20454;-76
2023/10/04 09:15:13;;;;;;;9.93;3.15;;;18.90;72.40;;;;;;5029894;28;20021;-76
2023/10/04 09:18:05;;;;;;;10.57;3.83;;;19.00;72.20;;;;;;5035213;28;20112;-75
2023/10/04 09:20:35;;;;;;;10.05;3.42;;;19.10;71.90;;;;;;5031012;28;20036;-72
2023/10/04 09:23:02;;;;;;;8.95;3.47;;;19.10;71.90;;;;;;5031521;28;20045;-72
2023/10/04 09:25:38;;;;;;;14.05;3.90;;;19.10;71.70;;;;;;5031283;28;20110;-72
2023/10/04 09:28:04;;;;;;;10.20;3.63;;;19.20;71.70;;;;;;5028817;28;20037;-72
2023/10/04 09:30:34;;;;;;;12.75;3.65;;;19.10;71.60;;;;;;5031206;28;20021;-71
2023/10/04 09:32:59;;;;;;;11.13;3.50;;;19.10;71.60;;;;;;5030660;28;20029;-71
2023/10/04 09:35:43;;;;;;;11.50;3.75;;;19.20;71.70;;;;;;5045497;28;20465;-71
2023/10/04 09:38:25;;;;;;;11.32;3.60;;;19.20;71.40;;;;;;5030635;28;20098;-71
2023/10/04 09:40:52;;;;;;;10.85;3.38;;;19.30;71.40;;;;;;5028921;28;20017;-70
2023/10/04 09:43:29;;;;;;;13.80;3.60;;;19.30;71.40;;;;;;5035570;28;20080;-70
2023/10/04 09:45:56;;;;;;;9.65;3.90;;;19.30;71.20;;;;;;5042493;28;20025;-72
2023/10/04 09:48:25;;;;;;;10.35;3.45;;;19.20;71.10;;;;;;5045943;28;20120;-75
2023/10/04 09:51:00;;;;;;;10.40;3.20;;;19.20;71.10;;;;;;5027469;28;20369;-75
2023/10/04 09:53:25;;;;;;;13.15;4.40;;;19.20;71.10;;;;;;5028688;28;20021;-74
2023/10/04 09:55:53;;;;;;;10.50;3.67;;;19.20;71.10;;;;;;5031590;28;20025;-75
2023/10/04 09:58:24;;;;;;;11.10;3.40;;;19.20;71.00;;;;;;5032209;28;20037;-75
2023/10/04 10:00:52;;;;;;;9.35;3.30;;;19.20;70.90;;;;;;5029479;28;20025;-75
2023/10/04 10:03:28;;;;;;;11.48;3.70;;;19.10;70.80;;;;;;5028164;28;20021;-75
2023/10/04 10:05:56;;;;;;;10.70;3.78;;;19.20;70.90;;;;;;5034360;28;20057;-75
2023/10/04 10:08:30;;;;;;;9.75;3.22;;;19.10;70.80;;;;;;5047692;28;20026;-75
2023/10/04 10:10:58;;;;;;;12.10;3.47;;;19.10;70.80;;;;;;5030505;28;20030;-75
2023/10/04 10:13:25;;;;;;;9.68;3.38;;;19.00;70.80;;;;;;5033469;28;20022;-74
2023/10/04 10:15:53;;;;;;;12.50;3.88;;;19.00;70.90;;;;;;5030301;28;20033;-75
2023/10/04 10:18:21;;;;;;;10.82;3.55;;;19.10;71.00;;;;;;5029935;28;20025;-76
2023/10/04 10:20:47;;;;;;;11.25;3.50;;;19.10;70.90;;;;;;5027819;28;20033;-75
2023/10/04 10:23:13;;;;;;;9.90;3.60;;;19.10;71.50;;;;;;5026597;28;20025;-75
2023/10/04 10:25:41;;;;;;;9.68;3.42;;;19.10;70.70;;;;;;5026612;28;20048;-75
2023/10/04 10:28:20;;;;;;;11.48;4.15;;;19.10;70.50;;;;;;5028007;28;20038;-76
2023/10/04 10:30:46;;;;;;;12.68;4.18;;;19.10;70.50;;;;;;5027463;28;20036;-76
2023/10/04 10:33:12;;;;;;;10.63;3.70;;;19.00;70.80;;;;;;5025887;28;20017;-75
2023/10/04 10:35:57;;;;;;;11.77;4.18;;;19.00;70.90;;;;;;5028904;28;20026;-76
2023/10/04 10:38:41;;;;;;;10.45;3.55;;;19.00;71.10;;;;;;5027187;28;20402;-76
2023/10/04 10:41:08;;;;;;;13.50;4.05;;;18.90;71.20;;;;;;5025469;28;20113;-76
2023/10/04 10:43:37;;;;;;;12.85;4.80;;;18.90;71.40;;;;;;5028521;28;20034;-76
2023/10/04 10:46:34;;;;;;;8.88;3.50;;;18.90;71.30;;;;;;5029896;28;20092;-75
2023/10/04 10:48:59;;;;;;;10.35;3.65;;;18.80;71.10;;;;;;5044835;28;20037;-76
2023/10/04 10:51:42;;;;;;;9.38;3.88;;;18.90;71.00;;;;;;5044411;28;20095;-76
2023/10/04 10:54:08;;;;;;;11.00;4.38;;;19.00;70.80;;;;;;5026551;28;20072;-76
2023/10/04 10:56:37;;;;;;;11.77;4.28;;;19.00;70.60;;;;;;5048642;28;20057;-76
2023/10/04 10:59:05;;;;;;;13.27;4.43;;;19.10;70.50;;;;;;5028019;28;20104;-76
2023/10/04 11:01:31;;;;;;;10.43;3.80;;;19.10;70.40;;;;;;5028416;28;20018;-76
2023/10/04 11:04:00;;;;;;;14.07;4.03;;;19.10;70.50;;;;;;5026845;28;20359;-76
2023/10/04 11:06:26;;;;;;;14.05;3.63;;;19.10;70.60;;;;;;5034542;28;20022;-76
2023/10/04 11:08:55;;;;;;;11.73;4.18;;;19.20;70.50;;;;;;5034055;28;20114;-76
2023/10/04 11:11:22;;;;;;;9.23;3.72;;;19.20;70.50;;;;;;5035244;28;20029;-75
2023/10/04 11:13:48;;;;;;;10.40;3.92;;;19.20;70.40;;;;;;5034750;28;20025;-76
2023/10/04 11:16:14;;;;;;;11.90;4.15;;;19.20;70.30;;;;;;5032697;28;20362;-76
2023/10/04 11:18:40;;;;;;;11.80;4.05;;;19.30;70.00;;;;;;5019749;28;20036;-76
2023/10/04 11:21:06;;;;;;;11.02;3.65;;;19.40;69.70;;;;;;5033617;28;20371;-76
2023/10/04 11:23:37;;;;;;;12.02;3.80;;;19.50;69.30;;;;;;5033670;28;20041;-76
2023/10/04 11:26:04;;;;;;;10.35;3.70;;;19.60;68.90;;;;;;5033130;28;20048;-76
2023/10/04 11:28:30;;;;;;;10.02;3.88;;;19.60;68.60;;;;;;5031738;28;20033;-76
2023/10/04 11:30:56;;;;;;;13.00;4.45;;;19.60;68.20;;;;;;5032412;28;20036;-76
2023/10/04 11:33:23;;;;;;;9.95;4.10;;;19.60;68.10;;;;;;5033579;28;20025;-76
2023/10/04 11:35:49;;;;;;;11.50;3.47;;;19.60;68.00;;;;;;5032366;28;20028;-75
2023/10/04 11:38:16;;;;;;;14.25;3.92;;;19.60;67.80;;;;;;5032048;28;20025;-76
2023/10/04 11:40:46;;;;;;;11.05;4.25;;;19.60;67.70;;;;;;5049072;28;20026;-75
2023/10/04 11:43:12;;;;;;;10.50;4.15;;;19.60;67.50;;;;;;5016449;28;20061;-75
2023/10/04 11:45:38;;;;;;;11.43;4.25;;;19.60;67.60;;;;;;5032594;28;20478;-75
2023/10/04 11:48:07;;;;;;;10.73;3.90;;;19.60;67.40;;;;;;5041889;28;20033;-75
2023/10/04 11:50:52;;;;;;;9.23;3.63;;;19.60;67.30;;;;;;5039598;28;20090;-76
2023/10/04 11:53:34;;;;;;;11.48;4.35;;;19.60;67.10;;;;;;5040313;28;20025;-76
2023/10/04 11:56:07;;;;;;;12.63;3.70;;;19.60;67.10;;;;;;5053278;28;20040;-75
2023/10/04 11:58:49;;;;;;;10.57;3.70;;;19.60;67.00;;;;;;5052507;28;20357;-76
2023/10/04 12:01:20;;;;;;;10.00;3.72;;;19.70;67.40;;;;;;5042858;28;20037;-76
2023/10/04 12:03:46;;;;;;;11.45;3.85;;;19.70;66.40;;;;;;5033169;28;20041;-76
2023/10/04 12:06:15;;;;;;;12.20;4.03;;;19.70;66.30;;;;;;5036941;28;20083;-75
2023/10/04 12:08:41;;;;;;;8.90;3.25;;;19.70;66.20;;;;;;5048622;28;20037;-76
2023/10/04 12:11:13;;;;;;;9.95;4.50;;;19.70;66.00;;;;;;5053695;28;20439;-76
2023/10/04 12:13:42;;;;;;;12.57;4.13;;;19.60;65.90;;;;;;5039548;28;20044;-75
2023/10/04 12:16:08;;;;;;;13.23;4.13;;;19.60;65.90;;;;;;5019069;28;20060;-76
2023/10/04 12:18:34;;;;;;;12.98;4.72;;;19.60;66.10;;;;;;5032378;28;20487;-75
2023/10/04 12:21:00;;;;;;;10.70;4.10;;;19.60;66.20;;;;;;5051433;28;20033;-75
2023/10/04 12:23:26;;;;;;;12.93;4.67;;;19.50;66.10;;;;;;5011551;28;1177968;-75
2023/10/04 12:25:52;;;;;;;10.38;4.00;;;19.50;66.10;;;;;;5040004;28;20462;-76
2023/10/04 12:28:19;;;;;;;10.98;4.10;;;19.50;66.10;;;;;;5049127;28;20376;-75
2023/10/04 12:30:48;;;;;;;10.32;4.43;;;19.50;66.00;;;;;;5048410;28;20361;-76
2023/10/04 12:33:13;;;;;;;9.55;4.20;;;19.50;66.10;;;;;;5043316;28;20426;-76
2023/10/04 12:35:39;;;;;;;10.93;4.03;;;19.50;66.00;;;;;;5054021;28;20082;-75
2023/10/04 12:38:05;;;;;;;11.65;4.03;;;19.50;65.90;;;;;;5038681;28;20017;-76
2023/10/04 12:40:32;;;;;;;12.55;4.80;;;19.50;65.90;;;;;;5044275;28;20067;-75
2023/10/04 12:42:57;;;;;;;12.63;3.90;;;19.50;65.70;;;;;;5039841;28;20366;-75
2023/10/04 12:45:24;;;;;;;12.07;4.15;;;19.50;65.60;;;;;;5052697;28;20091;-76
2023/10/04 12:47:50;;;;;;;8.65;3.88;;;19.50;65.50;;;;;;5038591;28;20033;-75
2023/10/04 12:50:15;;;;;;;9.88;3.75;;;19.50;65.40;;;;;;5044187;28;20017;-76
2023/10/04 12:52:45;;;;;;;10.52;3.63;;;19.40;65.40;;;;;;5057241;28;20380;-76
2023/10/04 12:55:11;;;;;;;10.88;4.20;;;19.40;65.20;;;;;;5056040;28;20441;-76